Time;durP1;ratioP1;P1;durP2;ratioP2;P2;SDS_P1;SDS_P2;PMS_P1;PMS_P2;Temp;Humidity;BMP_temperature;BMP_pressure;BME280_temperature;BME280_humidity;BME280_pressure;Samples;Min_cycle;Max_cycle;Signal;HPM_P1;HPM_P2
2023/10/02 00:03:32;;;;;;;24.13;9.90;;;;;;;16.09;100.00;101892.56;5070567;28;20040;-69
2023/10/02 00:05:58;;;;;;;23.52;9.48;;;;;;;16.09;100.00;101889.91;5073137;28;20393;-70
2023/10/02 00:08:36;;;;;;;23.73;9.63;;;;;;;16.09;100.00;101892.56;5073070;28;20032;-67
2023/10/02 00:11:36;;;;;;;24.63;9.95;;;;;;;16.08;100.00;101889.03;5070284;28;20071;-65
2023/10/02 00:14:18;;;;;;;24.55;9.90;;;;;;;16.01;100.00;101890.78;5070343;28;20040;-68
2023/10/02 00:17:03;;;;;;;24.83;9.75;;;;;;;15.95;100.00;101889.94;5072711;28;20071;-69
2023/10/02 00:19:43;;;;;;;24.17;9.98;;;;;;;15.94;100.00;101890.81;5069526;28;20058;-69
2023/10/02 00:22:34;;;;;;;24.13;9.82;;;;;;;15.89;100.00;101892.59;5072754;28;20037;-70
2023/10/02 00:24:58;;;;;;;24.27;9.55;;;;;;;15.85;100.00;101889.06;5069091;28;20040;-70
2023/10/02 00:27:24;;;;;;;25.48;10.23;;;;;;;15.82;100.00;101889.06;5072960;28;20074;-68
2023/10/02 00:29:53;;;;;;;24.95;10.30;;;;;;;15.78;100.00;101895.25;5072450;28;20059;-70
2023/10/02 00:32:19;;;;;;;24.92;10.10;;;;;;;15.76;100.00;101892.56;5072559;28;20024;-66
2023/10/02 00:34:50;;;;;;;25.45;10.13;;;;;;;15.72;100.00;101895.25;5072657;28;20036;-66
2023/10/02 00:37:16;;;;;;;24.50;9.93;;;;;;;15.71;100.00;101898.78;5072443;28;20021;-67
2023/10/02 00:39:46;;;;;;;23.60;9.90;;;;;;;15.67;100.00;101893.47;5072370;28;20032;-67
2023/10/02 00:42:16;;;;;;;23.10;9.75;;;;;;;15.67;100.00;101895.25;5072822;28;20378;-67
2023/10/02 00:44:56;;;;;;;23.02;9.50;;;;;;;15.64;100.00;101893.47;5071192;28;20476;-67
2023/10/02 00:50:48;;;;;;;23.05;9.52;;;;;;;15.62;100.00;101886.34;5070636;28;20037;-67
2023/10/02 00:53:15;;;;;;;24.40;9.77;;;;;;;15.63;100.00;101880.16;5071555;28;20443;-67
2023/10/02 00:55:44;;;;;;;23.10;9.45;;;;;;;15.60;100.00;101889.03;5072528;28;20024;-67
2023/10/02 00:58:15;;;;;;;23.20;8.95;;;;;;;15.54;100.00;101883.69;5072148;28;20106;-66
2023/10/02 01:00:50;;;;;;;24.27;9.52;;;;;;;15.53;100.00;101884.59;5072702;28;20037;-66
2023/10/02 01:03:16;;;;;;;24.08;9.65;;;;;;;15.46;100.00;101882.81;5072358;28;20035;-68
2023/10/02 01:05:50;;;;;;;24.58;10.13;;;;;;;15.44;100.00;101889.91;5070993;28;20111;-67
2023/10/02 01:08:25;;;;;;;23.42;9.60;;;;;;;15.40;100.00;101885.47;5072286;28;20064;-66
2023/10/02 01:10:57;;;;;;;23.73;9.70;;;;;;;15.45;100.00;101881.00;5072146;28;20068;-67
2023/10/02 01:13:27;;;;;;;23.42;9.18;;;;;;;15.41;100.00;101873.94;5068320;28;20039;-68
2023/10/02 01:15:54;;;;;;;26.10;10.90;;;;;;;15.46;100.00;101872.16;5068411;28;20357;-67
2023/10/02 01:18:22;;;;;;;25.48;10.52;;;;;;;15.45;100.00;101873.03;5071998;28;20033;-67
2023/10/02 01:20:48;;;;;;;24.05;10.13;;;;;;;15.44;100.00;101869.47;5072537;28;20387;-68
2023/10/02 01:23:17;;;;;;;25.33;9.73;;;;;;;15.46;100.00;101874.81;5071986;28;20107;-67
2023/10/02 01:25:47;;;;;;;24.73;10.23;;;;;;;15.48;100.00;101871.25;5075712;28;20025;-67
2023/10/02 01:28:25;;;;;;;25.00;9.85;;;;;;;15.48;100.00;101878.38;5075825;28;20056;-66
2023/10/02 01:30:51;;;;;;;24.80;10.10;;;;;;;15.40;100.00;101872.16;5076227;28;20399;-67
2023/10/02 01:33:21;;;;;;;24.45;10.48;;;;;;;15.46;100.00;101866.81;5075696;28;20476;-68
2023/10/02 01:35:48;;;;;;;24.95;10.60;;;;;;;15.47;100.00;101868.59;5075576;28;20032;-70
2023/10/02 01:38:36;;;;;;;24.05;10.02;;;;;;;15.50;100.00;101871.25;5075790;28;20031;-68
2023/10/02 01:41:06;;;;;;;24.50;10.23;;;;;;;15.47;100.00;101871.25;5072795;28;20033;-69
2023/10/02 01:43:47;;;;;;;23.55;9.93;;;;;;;15.49;100.00;101870.38;5075690;28;20073;-70
2023/10/02 01:46:17;;;;;;;25.10;10.45;;;;;;;15.40;100.00;101864.16;5075679;28;20028;-71
2023/10/02 01:48:50;;;;;;;24.35;10.27;;;;;;;15.40;100.00;101867.69;5075751;28;20028;-70
2023/10/02 01:51:25;;;;;;;24.65;9.95;;;;;;;15.37;100.00;101866.81;5075390;28;20489;-69
2023/10/02 01:53:57;;;;;;;25.33;10.23;;;;;;;15.34;100.00;101868.56;5075495;28;20147;-70
2023/10/02 01:56:29;;;;;;;24.88;10.45;;;;;;;15.28;100.00;101867.72;5071489;28;20055;-68
2023/10/02 01:59:08;;;;;;;24.40;10.30;;;;;;;15.23;100.00;101869.47;5071412;28;20025;-70
2023/10/02 02:01:46;;;;;;;24.63;9.90;;;;;;;15.25;100.00;101865.91;5072603;28;20678;-69
2023/10/02 02:04:14;;;;;;;23.25;10.05;;;;;;;15.17;100.00;101865.00;5075478;28;20032;-68
2023/10/02 02:06:51;;;;;;;23.92;10.40;;;;;;;15.15;100.00;101872.13;5073933;28;20407;-68
2023/10/02 02:09:23;;;;;;;24.63;10.05;;;;;;;15.18;100.00;101866.78;5075587;28;20405;-68
2023/10/02 02:12:05;;;;;;;24.60;9.90;;;;;;;15.09;100.00;101861.47;5075308;28;20033;-67
2023/10/02 02:14:33;;;;;;;24.45;9.73;;;;;;;15.08;100.00;101865.00;5071962;28;20304;-67
2023/10/02 02:16:59;;;;;;;25.33;10.32;;;;;;;15.16;100.00;101871.25;5075250;28;20024;-67
2023/10/02 02:19:24;;;;;;;24.20;10.15;;;;;;;14.99;100.00;101869.41;5075038;28;20032;-68
2023/10/02 02:21:56;;;;;;;24.33;10.43;;;;;;;15.02;100.00;101870.31;5074875;28;20020;-67
2023/10/02 02:24:23;;;;;;;24.45;10.18;;;;;;;15.03;100.00;101865.00;5074877;28;20036;-69
2023/10/02 02:26:57;;;;;;;23.17;9.10;;;;;;;14.94;100.00;101864.97;5074977;28;20039;-70
2023/10/02 02:29:23;;;;;;;25.08;9.68;;;;;;;14.92;100.00;101864.97;5070850;28;20076;-68
2023/10/02 02:31:50;;;;;;;24.20;9.80;;;;;;;14.88;100.00;101863.19;5074707;28;20090;-70
2023/10/02 02:34:16;;;;;;;23.92;9.85;;;;;;;14.72;100.00;101858.69;5074557;28;20024;-70
2023/10/02 02:36:46;;;;;;;23.55;9.77;;;;;;;14.78;100.00;101866.69;5074760;28;20047;-71
2023/10/02 02:39:15;;;;;;;25.02;10.13;;;;;;;14.80;100.00;101864.94;5074402;28;20028;-71
2023/10/02 02:42:11;;;;;;;24.33;10.20;;;;;;;14.82;100.00;101868.47;5073052;28;20017;-70
2023/10/02 02:44:43;;;;;;;25.52;10.13;;;;;;;14.79;100.00;101864.06;5072357;28;20025;-70
2023/10/02 02:47:10;;;;;;;24.77;10.33;;;;;;;14.83;100.00;101859.63;5073048;28;20494;-71
2023/10/02 02:49:48;;;;;;;24.98;10.77;;;;;;;14.77;100.00;101851.63;5074636;28;20098;-71
2023/10/02 02:52:27;;;;;;;24.42;10.43;;;;;;;14.73;100.00;101853.38;5074557;28;20438;-70
2023/10/02 02:55:04;;;;;;;24.80;10.23;;;;;;;14.76;100.00;101861.38;5073189;28;20028;-68
2023/10/02 02:57:31;;;;;;;23.80;10.00;;;;;;;14.73;100.00;101860.47;5070951;28;20032;-70
2023/10/02 03:02:46;;;;;;;23.50;10.07;;;;;;;14.67;100.00;101849.81;5073069;28;20044;-70
2023/10/02 03:05:20;;;;;;;24.17;10.55;;;;;;;14.60;100.00;101852.41;5074237;28;20040;-70
2023/10/02 03:07:48;;;;;;;24.40;10.25;;;;;;;14.56;100.00;101853.31;5074175;28;20041;-70
2023/10/02 03:10:16;;;;;;;25.38;10.52;;;;;;;14.56;100.00;101849.72;5072672;28;20031;-70
2023/10/02 03:12:51;;;;;;;24.33;10.35;;;;;;;14.56;100.00;101847.97;5073825;28;20016;-69
2023/10/02 03:15:45;;;;;;;26.95;11.15;;;;;;;14.59;100.00;101841.75;5073963;28;20027;-69
2023/10/02 03:18:22;;;;;;;25.73;10.70;;;;;;;14.55;100.00;101842.66;5071454;28;20037;-69
2023/10/02 03:20:51;;;;;;;26.17;11.18;;;;;;;14.53;100.00;101836.41;5073870;28;20039;-66
2023/10/02 03:23:18;;;;;;;24.35;10.52;;;;;;;14.56;100.00;101826.69;5073889;28;20017;-64
2023/10/02 03:25:47;;;;;;;25.25;11.23;;;;;;;14.53;100.00;101833.75;5073807;28;20380;-68
2023/10/02 03:28:27;;;;;;;25.02;10.65;;;;;;;14.53;100.00;101834.63;5073725;28;20468;-65
2023/10/02 03:30:57;;;;;;;25.60;11.35;;;;;;;14.52;100.00;101835.53;5073751;28;20036;-65
2023/10/02 03:33:25;;;;;;;26.33;11.10;;;;;;;14.50;100.00;101834.63;5073413;28;20027;-68
2023/10/02 03:36:10;;;;;;;25.15;10.82;;;;;;;14.52;100.00;101837.28;5073304;28;20074;-68
2023/10/02 03:38:42;;;;;;;25.58;10.48;;;;;;;14.51;100.00;101836.41;5069545;28;20468;-65
2023/10/02 03:41:09;;;;;;;24.58;10.85;;;;;;;14.53;100.00;101828.44;5073202;28;20541;-67
2023/10/02 03:43:34;;;;;;;25.42;10.40;;;;;;;14.59;100.00;101836.44;5073458;28;20029;-66
2023/10/02 03:46:06;;;;;;;24.40;10.35;;;;;;;14.63;100.00;101839.19;5073271;28;20099;-69
2023/10/02 03:48:36;;;;;;;24.60;10.43;;;;;;;14.62;100.00;101837.38;5072968;28;20060;-66
2023/10/02 03:51:07;;;;;;;24.65;10.00;;;;;;;14.62;100.00;101837.38;5073300;28;20162;-64
2023/10/02 03:53:34;;;;;;;25.08;10.60;;;;;;;14.66;100.00;101834.72;5073032;28;20026;-67
2023/10/02 03:58:49;;;;;;;24.58;9.90;;;;;;;14.63;100.00;101835.59;5073230;28;20502;-65
2023/10/02 04:01:17;;;;;;;23.83;10.00;;;;;;;14.67;100.00;101836.53;5073359;28;20033;-67
2023/10/02 04:03:56;;;;;;;25.10;11.00;;;;;;;14.66;100.00;101834.72;5073144;28;20034;-67
2023/10/02 04:06:33;;;;;;;24.33;10.30;;;;;;;14.67;100.00;101834.72;5072879;28;20524;-68
2023/10/02 04:09:09;;;;;;;25.30;10.23;;;;;;;14.66;100.00;101840.94;5069459;28;20020;-62
2023/10/02 04:11:35;;;;;;;24.00;10.35;;;;;;;14.66;100.00;101837.41;5070168;28;20099;-67
2023/10/02 04:14:00;;;;;;;24.63;10.15;;;;;;;14.66;100.00;101842.72;5072897;28;20021;-62
2023/10/02 04:16:28;;;;;;;24.77;10.55;;;;;;;14.63;100.00;101827.63;5072752;28;20515;-62
2023/10/02 04:19:01;;;;;;;24.70;10.07;;;;;;;14.62;100.00;101834.72;5068511;28;20041;-61
2023/10/02 04:21:28;;;;;;;24.77;10.27;;;;;;;14.59;100.00;101829.38;5069058;28;20033;-63
2023/10/02 04:23:54;;;;;;;25.08;10.43;;;;;;;14.60;100.00;101831.13;5072713;28;20044;-62
2023/10/02 04:26:21;;;;;;;24.90;10.60;;;;;;;14.55;100.00;101824.91;5072884;28;20029;-63
2023/10/02 04:28:55;;;;;;;25.15;10.25;;;;;;;14.53;100.00;101831.97;5072661;28;20404;-62
2023/10/02 04:31:28;;;;;;;25.02;10.38;;;;;;;14.53;100.00;101824.00;5072796;28;20046;-63
2023/10/02 04:34:15;;;;;;;24.10;9.90;;;;;;;14.53;100.00;101834.63;5072858;28;20113;-62
2023/10/02 04:36:42;;;;;;;24.67;10.30;;;;;;;14.55;100.00;101834.69;5071107;28;20111;-62
2023/10/02 04:39:52;;;;;;;25.27;10.55;;;;;;;14.51;100.00;101828.44;5072710;28;20033;-63
2023/10/02 04:42:19;;;;;;;25.00;10.82;;;;;;;14.50;100.00;101821.34;5068621;28;20028;-62
2023/10/02 04:44:47;;;;;;;24.92;10.02;;;;;;;14.51;100.00;101831.09;5070075;28;20032;-62
2023/10/02 04:47:17;;;;;;;25.17;10.10;;;;;;;14.49;100.00;101832.88;5072385;28;20029;-62
2023/10/02 04:55:25;;;;;;;25.30;10.40;;;;;;;14.43;100.00;101831.09;5072445;28;20107;-64
2023/10/02 04:58:13;;;;;;;25.48;10.65;;;;;;;14.40;100.00;101822.19;5072453;28;20082;-65
2023/10/02 05:01:07;;;;;;;24.92;10.45;;;;;;;14.33;100.00;101823.03;5074093;28;20033;-63
2023/10/02 05:03:25;;;;;;;26.08;10.90;;;;;;;14.34;100.00;101819.50;5072479;28;20043;-62
2023/10/02 05:05:53;;;;;;;24.30;10.18;;;;;;;14.29;100.00;101819.50;5076202;28;20024;-62
2023/10/02 05:08:30;;;;;;;24.95;10.25;;;;;;;14.21;100.00;101823.88;5076252;28;20391;-67
2023/10/02 05:11:08;;;;;;;25.90;10.35;;;;;;;14.19;100.00;101823.88;5072230;28;20028;-67
2023/10/02 05:16:33;;;;;;;25.85;11.00;;;;;;;14.14;100.00;101825.63;5076327;28;20033;-69
2023/10/02 05:18:59;;;;;;;24.23;10.35;;;;;;;14.12;100.00;101822.97;5072876;28;20425;-68
2023/10/02 05:21:46;;;;;;;24.42;10.00;;;;;;;14.07;100.00;101824.69;5071851;28;20035;-66
2023/10/02 05:24:12;;;;;;;26.48;10.70;;;;;;;14.05;100.00;101829.13;5074090;28;20039;-65
2023/10/02 05:26:44;;;;;;;27.10;11.30;;;;;;;14.02;100.00;101831.75;5076035;28;20107;-67
2023/10/02 05:29:36;;;;;;;;;;;;;;;14.04;100.00;101834.44;5076277;28;20056;-65
2023/10/02 05:32:19;;;;;;;25.42;11.10;;;;;;;14.02;100.00;101830.88;5072805;28;19963;-66
2023/10/02 05:34:58;;;;;;;26.27;10.73;;;;;;;13.99;100.00;101830.84;5075721;28;20037;-68
2023/10/02 05:37:30;;;;;;;26.83;10.80;;;;;;;13.95;100.00;101841.47;5072912;28;20035;-66
2023/10/02 05:40:32;;;;;;;26.80;10.98;;;;;;;13.93;100.00;101831.69;5075334;28;20033;-66
2023/10/02 05:43:09;;;;;;;25.00;10.82;;;;;;;13.96;100.00;101834.38;5071199;28;20403;-64
2023/10/02 05:48:27;;;;;;;26.10;11.25;;;;;;;14.04;100.00;101834.44;5072252;28;20045;-61
2023/10/02 05:51:09;;;;;;;27.13;11.55;;;;;;;14.06;100.00;101837.97;5075373;28;20039;-61
2023/10/02 05:53:37;;;;;;;26.70;11.05;;;;;;;14.06;100.00;101846.84;5071341;28;20107;-66
2023/10/02 05:56:12;;;;;;;26.58;11.07;;;;;;;14.10;100.00;101853.06;5071333;28;20467;-63
2023/10/02 05:58:41;;;;;;;25.98;11.15;;;;;;;14.03;100.00;101854.78;5075028;28;20020;-64
2023/10/02 06:01:18;;;;;;;26.25;11.27;;;;;;;14.10;100.00;101859.28;5075067;28;20025;-65
2023/10/02 06:03:56;;;;;;;25.00;10.68;;;;;;;14.14;100.00;101862.84;5075074;28;20060;-67
2023/10/02 06:06:23;;;;;;;25.13;10.70;;;;;;;14.20;100.00;101852.25;5074583;28;20467;-65
2023/10/02 06:08:49;;;;;;;26.95;10.70;;;;;;;14.25;100.00;101850.47;5071035;28;20028;-64
2023/10/02 06:11:34;;;;;;;26.10;11.13;;;;;;;14.30;100.00;101843.44;5074592;28;20036;-63
2023/10/02 06:14:09;;;;;;;26.98;12.10;;;;;;;14.34;100.00;101859.41;5072429;28;20036;-64
2023/10/02 06:16:38;;;;;;;25.92;11.00;;;;;;;14.37;100.00;101852.34;5074739;28;20070;-64
2023/10/02 06:19:06;;;;;;;26.15;11.52;;;;;;;14.43;100.00;101851.44;5074312;28;20085;-61
2023/10/02 06:21:40;;;;;;;25.70;11.30;;;;;;;14.48;100.00;101852.38;5074483;28;20033;-62
2023/10/02 06:24:07;;;;;;;26.30;11.35;;;;;;;14.53;100.00;101861.25;5074586;28;20572;-61
2023/10/02 06:26:49;;;;;;;26.50;11.68;;;;;;;14.59;100.00;101849.75;5074475;28;20491;-62
2023/10/02 06:29:20;;;;;;;26.60;11.73;;;;;;;14.65;100.00;101849.81;5070740;28;20408;-64
2023/10/02 06:31:51;;;;;;;26.67;11.90;;;;;;;14.69;100.00;101856.03;5070417;28;20033;-67
2023/10/02 06:34:17;;;;;;;26.65;11.75;;;;;;;14.74;100.00;101862.28;5073577;28;20103;-67
2023/10/02 06:36:48;;;;;;;26.95;11.80;;;;;;;14.81;100.00;101856.09;5073151;28;20525;-65
2023/10/02 06:39:17;;;;;;;27.33;11.80;;;;;;;14.89;100.00;101856.09;5073085;28;20120;-67
2023/10/02 06:41:44;;;;;;;26.80;12.00;;;;;;;14.97;100.00;101857.88;5074239;28;20114;-65
2023/10/02 06:44:16;;;;;;;27.40;11.55;;;;;;;15.02;100.00;101855.22;5074012;28;20037;-65
2023/10/02 06:46:53;;;;;;;27.38;12.05;;;;;;;15.11;100.00;101857.03;5074607;28;20404;-67
2023/10/02 06:49:20;;;;;;;26.77;12.30;;;;;;;15.16;100.00;101856.16;5068746;28;20032;-66
2023/10/02 06:51:49;;;;;;;25.58;11.63;;;;;;;15.25;100.00;101871.25;5074074;28;20032;-65
2023/10/02 06:54:18;;;;;;;27.85;12.05;;;;;;;15.31;100.00;101857.94;5074209;28;20025;-68
2023/10/02 06:56:45;;;;;;;27.67;11.82;;;;;;;15.40;100.00;101850.84;5072266;28;20051;-65
2023/10/02 06:59:10;;;;;;;26.65;11.63;;;;;;;15.47;100.00;101856.16;5073843;28;20032;-66
2023/10/02 07:01:36;;;;;;;26.20;11.60;;;;;;;15.54;100.00;101851.72;5073904;28;20035;-62
2023/10/02 07:04:09;;;;;;;26.50;11.55;;;;;;;15.65;100.00;101846.38;5070050;28;20021;-68
2023/10/02 07:06:38;;;;;;;27.23;11.82;;;;;;;15.78;100.00;101837.50;5066998;28;20107;-66
2023/10/02 07:09:10;;;;;;;25.85;11.52;;;;;;;15.94;100.00;101843.69;5066116;28;20434;-61
2023/10/02 07:11:37;;;;;;;26.90;11.98;;;;;;;16.11;100.00;101848.13;5072632;28;20090;-62
2023/10/02 07:14:04;;;;;;;27.00;11.98;;;;;;;16.27;100.00;101843.63;5073786;28;20038;-66
2023/10/02 07:16:32;;;;;;;27.50;11.75;;;;;;;16.41;100.00;101838.22;5073767;28;20032;-62
2023/10/02 07:18:59;;;;;;;27.45;12.05;;;;;;;16.54;100.00;101842.59;5072802;28;20087;-62
2023/10/02 07:21:26;;;;;;;26.45;11.30;;;;;;;16.77;100.00;101837.16;5061339;28;20145;-66
2023/10/02 07:23:51;;;;;;;25.52;11.10;;;;;;;16.95;100.00;101840.66;5069025;28;20024;-69
2023/10/02 07:26:49;;;;;;;26.92;11.20;;;;;;;17.13;100.00;101831.63;5073613;28;20107;-63
2023/10/02 07:29:07;;;;;;;26.42;11.60;;;;;;;17.33;100.00;101831.47;5069250;28;20048;-65
2023/10/02 07:31:34;;;;;;;27.50;11.35;;;;;;;17.45;100.00;101830.50;5066827;28;20095;-67
2023/10/02 07:34:00;;;;;;;26.92;11.70;;;;;;;17.64;100.00;101829.41;5072779;28;20036;-65
2023/10/02 07:36:30;;;;;;;25.63;10.75;;;;;;;17.75;100.00;101842.66;5073460;28;20438;-63
2023/10/02 07:38:56;;;;;;;25.42;10.93;;;;;;;17.74;100.00;101836.44;5073113;28;20120;-62
2023/10/02 07:41:25;;;;;;;25.67;10.93;;;;;;;17.74;100.00;101844.47;5073292;28;20040;-63
2023/10/02 07:43:55;;;;;;;25.92;10.75;;;;;;;17.77;100.00;101831.06;5072975;28;20032;-62
2023/10/02 07:46:23;;;;;;;24.88;10.75;;;;;;;17.77;100.00;101833.75;5072937;28;20056;-61
2023/10/02 07:49:00;;;;;;;24.85;10.57;;;;;;;17.75;100.00;101834.66;5069427;28;20123;-66
2023/10/02 07:51:36;;;;;;;25.67;10.90;;;;;;;17.76;100.00;101837.31;5070495;28;20029;-63
2023/10/02 07:54:09;;;;;;;25.42;10.63;;;;;;;17.77;100.00;101832.88;5072954;28;20028;-64
2023/10/02 07:56:35;;;;;;;26.15;10.65;;;;;;;17.76;100.00;101831.97;5072747;28;20032;-62
2023/10/02 07:59:01;;;;;;;25.27;11.10;;;;;;;17.74;100.00;101833.78;5072752;28;20123;-67
2023/10/02 08:01:33;;;;;;;26.05;10.73;;;;;;;17.72;100.00;101835.59;5072788;28;20033;-65
2023/10/02 08:04:01;;;;;;;;;;;;;;;17.76;100.00;101837.31;5073340;28;20036;-64
2023/10/02 08:06:33;;;;;;;25.33;11.48;;;;;;;17.67;100.00;101832.06;5072746;28;19923;-68
2023/10/02 08:11:49;;;;;;;26.80;10.82;;;;;;;17.65;100.00;101833.88;5070795;28;20044;-68
2023/10/02 08:17:00;;;;;;;26.33;10.98;;;;;;;17.99;100.00;101852.28;5072563;28;20032;-61
2023/10/02 08:19:29;;;;;;;25.35;11.48;;;;;;;18.19;100.00;101846.72;5072738;28;20036;-61
2023/10/02 08:21:55;;;;;;;27.35;11.57;;;;;;;18.50;100.00;101843.66;5072570;28;20071;-63
2023/10/02 08:24:20;;;;;;;27.85;11.40;;;;;;;18.95;100.00;101840.41;5072826;28;20029;-64
2023/10/02 08:26:47;;;;;;;26.35;11.02;;;;;;;19.20;100.00;101842.72;5072644;28;20032;-61
2023/10/02 08:29:14;;;;;;;26.08;11.10;;;;;;;19.24;100.00;101844.44;5072346;28;20040;-62
2023/10/02 08:31:48;;;;;;;26.20;11.10;;;;;;;19.58;100.00;101844.72;5072679;28;20025;-65
2023/10/02 08:34:19;;;;;;;25.77;11.27;;;;;;;19.87;100.00;101845.16;5072484;28;20123;-67
2023/10/02 08:37:05;;;;;;;26.33;11.50;;;;;;;20.27;100.00;101844.38;5072472;28;20032;-67
2023/10/02 08:39:33;;;;;;;24.95;11.15;;;;;;;20.72;100.00;101839.88;5072449;28;20028;-65
2023/10/02 08:41:59;;;;;;;25.98;10.68;;;;;;;21.30;100.00;101838.53;5072662;28;20024;-63
2023/10/02 08:44:25;;;;;;;26.45;11.32;;;;;;;21.61;100.00;101837.78;5072510;28;20036;-64
2023/10/02 08:46:50;;;;;;;26.17;10.80;;;;;;;21.90;100.00;101834.28;5072351;28;20021;-63
2023/10/02 08:49:18;;;;;;;23.75;10.32;;;;;;;22.14;100.00;101839.94;5072223;28;20028;-66
2023/10/02 08:51:50;;;;;;;24.77;10.20;;;;;;;22.58;100.00;101841.34;5071379;28;20398;-63
2023/10/02 08:54:15;;;;;;;23.83;10.10;;;;;;;22.70;100.00;101837.41;5072591;28;20028;-67
2023/10/02 08:56:44;;;;;;;24.65;10.45;;;;;;;22.34;100.00;101828.59;5072166;28;20045;-65
2023/10/02 08:59:26;;;;;;;25.33;10.52;;;;;;;22.14;100.00;101821.97;5072099;28;20037;-65
2023/10/02 09:02:14;;;;;;;24.08;10.00;;;;;;;21.90;100.00;101820.84;5071452;28;20434;-66
2023/10/02 09:04:51;;;;;;;24.83;10.27;;;;;;;21.64;100.00;101818.84;5069341;28;20052;-65
2023/10/02 09:07:44;;;;;;;24.88;10.68;;;;;;;21.76;100.00;101818.53;5072364;28;20464;-69
2023/10/02 09:10:18;;;;;;;25.02;10.35;;;;;;;21.85;100.00;101820.97;5069513;28;20048;-63
2023/10/02 09:12:51;;;;;;;25.73;10.88;;;;;;;21.57;100.00;101816.34;5072321;28;20032;-67
2023/10/02 09:15:30;;;;;;;24.48;10.40;;;;;;;21.33;100.00;101822.31;5072003;28;20025;-68
2023/10/02 09:17:57;;;;;;;25.15;10.55;;;;;;;21.18;100.00;101829.84;5071936;28;20028;-67
2023/10/02 09:20:38;;;;;;;25.25;10.93;;;;;;;21.02;100.00;101825.75;5071878;28;20157;-68
2023/10/02 09:23:08;;;;;;;24.95;10.70;;;;;;;20.89;100.00;101817.97;5068315;28;20025;-66
2023/10/02 09:25:37;;;;;;;25.95;10.57;;;;;;;20.87;100.00;101827.88;5068631;28;20063;-68
2023/10/02 09:28:04;;;;;;;25.25;10.70;;;;;;;20.83;100.00;101818.13;5068100;28;20056;-62
2023/10/02 09:33:07;;;;;;;24.58;10.38;;;;;;;20.85;100.00;101820.78;5072404;28;20029;-69
2023/10/02 09:35:41;;;;;;;25.30;10.63;;;;;;;20.87;100.00;101825.19;5068333;28;20025;-64
2023/10/02 09:38:10;;;;;;;25.25;11.02;;;;;;;20.81;100.00;101819.97;5067341;28;20074;-68
2023/10/02 09:43:31;;;;;;;25.83;10.77;;;;;;;20.59;100.00;101815.97;5069587;28;20077;-67
2023/10/02 09:46:05;;;;;;;26.17;10.90;;;;;;;20.52;100.00;101824.16;5074221;28;20368;-62
2023/10/02 09:51:30;;;;;;;24.20;10.15;;;;;;;21.82;100.00;101818.38;5071622;28;20039;-64
2023/10/02 09:54:18;;;;;;;24.88;10.68;;;;;;;22.93;100.00;101817.78;5068761;28;20203;-65
2023/10/02 09:57:05;;;;;;;25.58;10.50;;;;;;;23.79;100.00;101807.75;5066742;28;20471;-68
2023/10/02 09:59:48;;;;;;;26.27;11.13;;;;;;;24.16;100.00;101820.81;5071763;28;20025;-70
2023/10/02 10:05:01;;;;;;;25.20;10.68;;;;;;;25.81;100.00;101818.69;5071103;28;20036;-61
2023/10/02 10:07:46;;;;;;;24.23;10.40;;;;;;;25.97;100.00;101824.31;5065173;28;20029;-63
2023/10/02 10:10:49;;;;;;;24.60;11.27;;;;;;;26.15;100.00;101817.19;5071349;28;20029;-65
2023/10/02 10:13:35;;;;;;;25.27;11.05;;;;;;;27.07;100.00;101811.03;5065965;28;20475;-62
2023/10/02 10:16:18;;;;;;;25.60;10.50;;;;;;;27.00;100.00;101812.28;5066041;28;20033;-62
2023/10/02 10:19:26;;;;;;;26.02;10.65;;;;;;;26.65;100.00;101806.75;5071069;28;20380;-63
2023/10/02 10:21:56;;;;;;;25.17;10.60;;;;;;;26.48;100.00;101810.28;5066579;28;20024;-62
2023/10/02 10:24:30;;;;;;;24.58;10.40;;;;;;;26.42;100.00;101806.91;5064178;28;20071;-63
2023/10/02 10:26:56;;;;;;;26.27;11.35;;;;;;;26.94;100.00;101794.50;5064046;28;20230;-62
2023/10/02 10:30:08;;;;;;;23.90;10.77;;;;;;;27.47;100.00;101793.63;5070099;28;20457;-61
2023/10/02 10:32:31;;;;;;;23.80;10.15;;;;;;;27.05;100.00;101793.97;5064361;28;20028;-66
2023/10/02 10:35:14;;;;;;;26.85;11.15;;;;;;;27.29;100.00;101799.97;5070725;28;20116;-69
2023/10/02 10:37:41;;;;;;;24.40;10.88;;;;;;;28.17;100.00;101796.28;5069811;28;20036;-66
2023/10/02 10:40:41;;;;;;;26.15;11.18;;;;;;;28.36;100.00;101795.25;5074346;28;20498;-71
2023/10/02 10:42:56;;;;;;;24.35;10.43;;;;;;;28.31;100.00;101783.75;5072852;28;20068;-71
2023/10/02 10:45:24;;;;;;;24.20;10.35;;;;;;;29.11;100.00;101790.09;5074763;28;20031;-70
2023/10/02 10:47:50;;;;;;;24.33;10.35;;;;;;;28.82;100.00;101784.50;5074179;28;20036;-68
2023/10/02 10:50:29;;;;;;;23.30;10.30;;;;;;;27.73;100.00;101785.97;5073821;28;20479;-67
2023/10/02 10:53:02;;;;;;;24.67;10.32;;;;;;;26.43;100.00;101780.66;5065730;28;20111;-67
2023/10/02 10:55:32;;;;;;;24.63;10.50;;;;;;;25.44;100.00;101770.69;5069167;28;20491;-66
2023/10/02 10:57:58;;;;;;;24.02;10.45;;;;;;;24.70;100.00;101774.66;5067462;28;20024;-63
2023/10/02 11:00:28;;;;;;;24.15;9.98;;;;;;;25.21;100.00;101772.56;5062964;28;20037;-66
2023/10/02 11:03:08;;;;;;;24.40;10.45;;;;;;;25.88;100.00;101775.97;5069675;28;20032;-66
2023/10/02 11:05:34;;;;;;;24.88;10.52;;;;;;;26.17;100.00;101771.06;5070462;28;20060;-64
2023/10/02 11:08:23;;;;;;;24.45;10.43;;;;;;;26.71;100.00;101766.69;5061324;28;20055;-64
2023/10/02 11:11:11;;;;;;;25.30;10.90;;;;;;;27.60;100.00;101765.84;5062386;28;20032;-62
2023/10/02 11:13:50;;;;;;;24.52;10.52;;;;;;;27.15;100.00;101768.13;5069870;28;20035;-65
2023/10/02 11:16:36;;;;;;;26.45;10.60;;;;;;;27.45;100.00;101762.97;5073784;28;20028;-68
2023/10/02 11:22:14;;;;;;;24.90;10.43;;;;;;;27.20;100.00;101755.19;5073530;28;20037;-68
2023/10/02 11:25:04;;;;;;;23.65;10.15;;;;;;;28.04;100.00;101754.44;5071951;28;20024;-67
2023/10/02 11:27:29;;;;;;;24.80;10.50;;;;;;;29.78;100.00;101761.56;5069303;28;20403;-68
2023/10/02 11:30:01;;;;;;;25.92;10.57;;;;;;;30.46;96.78;101766.38;5073039;28;20045;-70
2023/10/02 11:32:46;;;;;;;27.38;10.57;;;;;;;31.24;100.00;101767.59;5073067;28;20472;-72
2023/10/02 11:35:11;;;;;;;23.92;10.07;;;;;;;31.68;80.13;101757.31;5065545;28;20423;-71
2023/10/02 11:37:44;;;;;;;23.83;9.90;;;;;;;32.28;89.80;101759.31;5072528;28;20111;-69
2023/10/02 11:40:10;;;;;;;24.23;10.32;;;;;;;32.75;73.63;101747.72;5072677;28;20355;-72
2023/10/02 11:42:36;;;;;;;25.02;10.48;;;;;;;32.11;72.61;101751.44;5073070;28;20104;-71
2023/10/02 11:45:02;;;;;;;24.13;9.95;;;;;;;31.97;76.97;101747.88;5073237;28;20031;-74
2023/10/02 11:47:28;;;;;;;24.05;9.80;;;;;;;32.01;74.95;101747.63;5072929;28;20029;-74
2023/10/02 11:49:57;;;;;;;23.27;9.27;;;;;;;33.45;67.61;101741.41;5072596;28;20399;-73
2023/10/02 11:52:22;;;;;;;24.13;9.82;;;;;;;33.64;65.31;101740.81;5069233;28;20063;-73
2023/10/02 11:54:48;;;;;;;22.77;9.10;;;;;;;32.83;68.38;101728.84;5072926;28;20063;-73
2023/10/02 11:57:13;;;;;;;23.45;9.43;;;;;;;32.52;74.17;101722.94;5072858;28;20125;-69
2023/10/02 11:59:46;;;;;;;24.05;9.00;;;;;;;33.29;65.62;101727.16;5071634;28;20042;-74
2023/10/02 12:02:12;;;;;;;22.23;8.93;;;;;;;34.01;60.28;101732.38;5072989;28;20467;-63
2023/10/02 12:04:38;;;;;;;24.40;9.48;;;;;;;32.64;64.44;101719.25;5072802;28;20039;-74
2023/10/02 12:07:05;;;;;;;22.85;8.73;;;;;;;31.31;74.88;101721.59;5073011;28;20028;-73
2023/10/02 12:09:32;;;;;;;23.13;9.02;;;;;;;30.13;91.03;101718.50;5072898;28;20436;-74
2023/10/02 12:11:58;;;;;;;23.77;10.13;;;;;;;29.15;100.00;101707.25;5072771;28;20482;-72